Time;durP1;ratioP1;P1;durP2;ratioP2;P2;SDS_P1;SDS_P2;PMS_P1;PMS_P2;Temp;Humidity;BMP_temperature;BMP_pressure;BME280_temperature;BME280_humidity;BME280_pressure;Samples;Min_cycle;Max_cycle;Signal;HPM_P1;HPM_P2
2022/01/14 00:04:58;;;;;;;22.27;12.00;;;;;;;7.30;50.31;102579.22;10524731;28;20191;-88
2022/01/14 00:10:01;;;;;;;23.80;10.77;;;;;;;6.73;51.23;102575.28;10524609;28;20207;-86
2022/01/14 00:20:35;;;;;;;18.47;10.73;;;;;;;6.48;52.26;102565.19;10565498;28;20225;-88
2022/01/14 00:36:19;;;;;;;22.77;10.53;;;;;;;7.06;50.68;102547.59;10576088;28;20250;-85
2022/01/14 00:41:22;;;;;;;21.53;10.90;;;;;;;7.27;49.90;102551.72;10573314;28;20483;-83
2022/01/14 00:46:24;;;;;;;18.67;11.07;;;;;;;7.39;49.67;102546.13;10556700;28;20231;-85
2022/01/14 00:51:26;;;;;;;20.50;10.63;;;;;;;7.40;49.35;102531.03;10573817;28;20467;-83
2022/01/14 01:01:33;;;;;;;23.70;11.17;;;;;;;7.18;50.08;102528.91;10574344;28;20202;-86
2022/01/14 01:06:36;;;;;;;15.40;9.97;;;;;;;6.93;50.18;102525.50;10560236;28;20264;-84
2022/01/14 01:11:44;;;;;;;20.23;11.10;;;;;;;6.78;50.90;102530.72;10540908;28;20212;-87
2022/01/14 01:16:46;;;;;;;22.00;11.67;;;;;;;7.03;50.50;102524.88;10514703;28;20272;-86
2022/01/14 01:21:48;;;;;;;17.50;10.23;;;;;;;7.62;48.91;102517.25;10530097;28;20495;-87
2022/01/14 01:27:07;;;;;;;18.37;11.40;;;;;;;7.19;49.70;102539.00;10532279;28;20259;-84
2022/01/14 01:32:10;;;;;;;17.63;10.83;;;;;;;7.14;49.75;102543.56;10542708;28;20190;-84
2022/01/14 01:37:12;;;;;;;22.93;11.80;;;;;;;7.59;48.58;102552.16;10538816;28;20211;-84
2022/01/14 01:42:16;;;;;;;21.47;12.03;;;;;;;6.61;50.91;102555.72;10554775;28;20191;-84
2022/01/14 01:47:22;;;;;;;19.00;11.43;;;;;;;6.84;51.10;102572.53;10538315;28;20664;-84
2022/01/14 01:52:24;;;;;;;20.67;11.93;;;;;;;7.00;49.57;102579.31;10536528;28;20190;-85
2022/01/14 01:57:26;;;;;;;21.83;12.07;;;;;;;6.80;49.73;102588.06;10510681;28;20272;-83
2022/01/14 02:02:29;;;;;;;22.77;11.37;;;;;;;6.83;49.54;102586.75;10528460;28;20191;-83
2022/01/14 02:07:32;;;;;;;22.03;12.40;;;;;;;6.77;49.79;102594.13;10511294;28;20218;-87
2022/01/14 02:12:47;;;;;;;23.87;11.63;;;;;;;6.83;49.34;102593.19;10532238;28;20198;-84
2022/01/14 02:23:10;;;;;;;21.80;11.17;;;;;;;6.26;49.15;102571.56;10534073;28;20183;-88
2022/01/14 02:28:16;;;;;;;22.17;12.30;;;;;;;6.47;48.82;102571.00;10527157;28;20240;-88
2022/01/14 02:33:18;;;;;;;20.47;10.80;;;;;;;6.41;48.63;102558.03;10526674;28;20228;-87
2022/01/14 02:38:21;;;;;;;21.50;11.67;;;;;;;6.09;49.24;102544.34;10526101;28;20223;-86
2022/01/14 02:43:25;;;;;;;20.53;12.43;;;;;;;6.29;49.38;102546.84;10543278;28;20572;-87
2022/01/14 02:48:29;;;;;;;19.60;11.67;;;;;;;6.03;49.50;102542.53;10526682;28;20190;-86
2022/01/14 02:58:42;;;;;;;23.40;12.53;;;;;;;6.09;49.76;102530.38;10527147;28;20268;-84
2022/01/14 03:03:45;;;;;;;25.33;14.87;;;;;;;5.92;50.31;102520.16;10525102;28;20533;-84
2022/01/14 03:08:48;;;;;;;25.27;13.83;;;;;;;5.50;51.51;102524.81;10527200;28;20210;-83
2022/01/14 03:13:51;;;;;;;29.37;14.60;;;;;;;5.33;52.00;102525.44;10526652;28;20216;-87
2022/01/14 03:19:03;;;;;;;22.93;13.13;;;;;;;5.33;51.85;102519.00;10525949;28;20219;-88
2022/01/14 03:29:18;;;;;;;31.20;14.83;;;;;;;4.85;52.36;102497.50;10528463;28;20567;-84
2022/01/14 03:34:20;;;;;;;28.53;15.13;;;;;;;4.82;52.31;102511.03;10524993;28;20199;-82
2022/01/14 03:39:23;;;;;;;26.53;14.87;;;;;;;4.81;53.55;102500.97;10508099;28;20492;-83
2022/01/14 03:44:25;;;;;;;52.53;17.60;;;;;;;4.32;54.19;102497.16;10524805;28;20256;-84
2022/01/14 03:49:27;;;;;;;110.10;19.90;;;;;;;4.38;54.84;102501.84;10547883;28;20543;-83
2022/01/14 03:54:30;;;;;;;130.40;22.33;;;;;;;4.79;53.75;102492.00;10515794;28;20456;-85
2022/01/14 03:59:32;;;;;;;84.33;20.27;;;;;;;4.91;53.04;102498.50;10531561;28;20527;-86
2022/01/14 04:04:35;;;;;;;64.17;19.73;;;;;;;4.43;54.34;102502.00;10525382;28;20545;-82
2022/01/14 04:09:37;;;;;;;56.43;19.30;;;;;;;4.56;54.46;102499.09;10549977;28;20218;-85
2022/01/14 04:19:48;;;;;;;150.63;25.20;;;;;;;4.42;54.50;102513.34;10531847;28;20226;-89
2022/01/14 04:24:50;;;;;;;116.67;22.33;;;;;;;4.83;53.57;102507.16;10532420;28;20206;-86
2022/01/14 04:29:53;;;;;;;44.87;17.90;;;;;;;4.47;54.50;102497.69;10531185;28;20190;-83
2022/01/14 04:34:55;;;;;;;46.70;19.03;;;;;;;4.46;54.37;102500.69;10531391;28;20252;-87
2022/01/14 04:39:57;;;;;;;31.70;16.87;;;;;;;4.53;54.29;102502.31;10528336;28;20218;-86
2022/01/14 04:44:59;;;;;;;43.47;17.07;;;;;;;4.17;55.41;102491.91;10549222;28;20206;-81
2022/01/14 04:50:02;;;;;;;40.07;17.20;;;;;;;4.03;55.98;102488.38;10548597;28;20209;-84
2022/01/14 04:55:06;;;;;;;53.93;18.07;;;;;;;4.43;54.58;102490.00;10519063;28;20199;-83
2022/01/14 05:00:11;;;;;;;59.80;20.23;;;;;;;4.28;55.24;102487.56;10536481;28;20343;-84
2022/01/14 05:05:17;;;;;;;43.03;16.63;;;;;;;4.34;54.60;102481.97;10562239;28;20254;-83
2022/01/14 05:10:36;;;;;;;88.57;20.53;;;;;;;4.03;55.15;102484.75;10565786;28;20259;-84
2022/01/14 05:15:38;;;;;;;70.30;20.00;;;;;;;4.27;54.43;102491.44;10566620;28;20641;-83
2022/01/14 05:20:40;;;;;;;62.60;18.30;;;;;;;4.03;55.77;102499.50;10563843;28;20239;-83
2022/01/14 05:25:42;;;;;;;64.53;20.10;;;;;;;4.10;54.74;102501.41;10581772;28;20211;-84
2022/01/14 05:30:45;;;;;;;78.37;20.37;;;;;;;4.34;54.60;102487.53;10563714;28;20194;-85
2022/01/14 05:35:47;;;;;;;68.80;21.17;;;;;;;4.37;54.90;102492.63;10563820;28;20224;-84
2022/01/14 05:40:49;;;;;;;115.33;23.73;;;;;;;4.41;54.64;102493.00;10562386;28;20222;-81
2022/01/14 05:45:51;;;;;;;101.33;22.77;;;;;;;4.40;54.26;102496.88;10580226;28;20238;-84
2022/01/14 05:50:55;;;;;;;72.83;22.33;;;;;;;3.87;56.35;102502.81;10580120;28;20190;-85
2022/01/14 05:55:57;;;;;;;86.97;23.07;;;;;;;4.52;54.53;102497.81;10562650;28;20258;-85
2022/01/14 06:01:00;;;;;;;88.50;21.70;;;;;;;4.09;55.88;102499.69;10554377;28;20680;-85
2022/01/14 06:06:02;;;;;;;101.40;23.90;;;;;;;4.21;55.47;102493.19;10503022;28;20241;-87
2022/01/14 06:11:05;;;;;;;86.80;21.60;;;;;;;4.07;55.86;102479.59;10536028;28;20259;-88
2022/01/14 06:16:07;;;;;;;114.20;24.90;;;;;;;4.35;55.55;102460.56;10538380;28;20215;-85
2022/01/14 06:21:10;;;;;;;75.73;21.30;;;;;;;4.11;55.31;102461.38;10542805;28;20279;-84
2022/01/14 06:26:12;;;;;;;62.00;20.33;;;;;;;4.14;55.83;102464.53;10531804;28;20255;-83
2022/01/14 06:31:14;;;;;;;105.63;22.50;;;;;;;3.94;56.04;102459.16;10531797;28;20198;-83
2022/01/14 06:36:16;;;;;;;61.53;20.00;;;;;;;4.16;55.02;102453.19;10529666;28;20271;-85
2022/01/14 06:41:19;;;;;;;67.17;19.30;;;;;;;3.84;56.39;102464.38;10509014;28;20637;-85
2022/01/14 06:46:21;;;;;;;56.40;18.20;;;;;;;3.79;55.91;102455.00;10534704;28;20240;-83
2022/01/14 06:51:23;;;;;;;83.53;22.63;;;;;;;3.80;55.71;102446.44;10542812;28;20198;-82
2022/01/14 06:56:25;;;;;;;50.60;19.23;;;;;;;4.23;54.30;102454.03;10532770;28;20256;-82
2022/01/14 07:01:28;;;;;;;39.57;15.87;;;;;;;3.86;55.87;102466.94;10528881;28;20276;-83
2022/01/14 07:06:30;;;;;;;52.53;18.13;;;;;;;3.29;56.40;102439.06;10524570;28;20650;-83
2022/01/14 07:11:36;;;;;;;52.43;16.93;;;;;;;3.51;56.13;102430.38;10518886;28;20199;-82
2022/01/14 07:16:38;;;;;;;47.93;16.93;;;;;;;3.73;55.62;102417.84;10514059;28;20721;-85
2022/01/14 07:21:41;;;;;;;42.10;15.43;;;;;;;3.25;57.35;102421.13;10526388;28;20257;-82
2022/01/14 07:26:45;;;;;;;36.87;14.90;;;;;;;3.40;56.44;102412.50;10527113;28;20206;-82
2022/01/14 07:31:47;;;;;;;36.93;14.03;;;;;;;3.20;57.31;102434.84;10560174;28;20659;-82
2022/01/14 07:36:49;;;;;;;53.47;17.40;;;;;;;3.24;56.60;102435.22;10528506;28;20594;-82
2022/01/14 07:41:53;;;;;;;46.63;17.70;;;;;;;2.64;58.21;102445.75;10522382;28;20218;-82
2022/01/14 07:46:55;;;;;;;51.87;17.63;;;;;;;4.02;54.58;102433.81;10545382;28;20197;-81
2022/01/14 07:51:57;;;;;;;52.63;20.40;;;;;;;4.09;54.71;102442.13;10527950;28;20243;-82
2022/01/14 07:57:00;;;;;;;52.87;20.53;;;;;;;3.94;54.66;102433.28;10532909;28;20210;-82
2022/01/14 08:02:03;;;;;;;74.03;20.80;;;;;;;3.85;54.76;102427.16;10538748;28;20221;-83
2022/01/14 08:07:08;;;;;;;46.90;21.07;;;;;;;4.19;54.50;102438.88;10510623;28;20226;-84
2022/01/14 08:12:14;;;;;;;52.53;20.47;;;;;;;4.58;53.47;102440.41;10540869;28;20499;-83
2022/01/14 08:17:19;;;;;;;39.10;20.13;;;;;;;4.48;54.25;102443.72;10550459;28;20230;-83
2022/01/14 08:22:22;;;;;;;44.20;20.93;;;;;;;4.79;53.17;102448.28;10540910;28;20240;-83
2022/01/14 08:27:26;;;;;;;44.10;21.10;;;;;;;5.06;52.77;102457.19;10545597;28;20475;-83
2022/01/14 08:32:28;;;;;;;41.10;20.57;;;;;;;5.15;52.84;102447.44;10523506;28;20292;-83
2022/01/14 08:37:30;;;;;;;38.77;19.70;;;;;;;4.88;53.34;102443.28;10534007;28;20210;-83
2022/01/14 08:42:33;;;;;;;33.33;20.10;;;;;;;4.66;54.21;102467.91;10530549;28;20218;-83
2022/01/14 08:47:35;;;;;;;39.33;21.43;;;;;;;4.99;53.23;102462.84;10530026;28;20198;-84
2022/01/14 08:52:38;;;;;;;39.13;20.10;;;;;;;5.40;52.33;102478.81;10524034;28;20199;-84
2022/01/14 08:57:41;;;;;;;39.50;20.90;;;;;;;5.24;53.49;102496.19;10533288;28;20202;-83
2022/01/14 09:02:43;;;;;;;47.40;22.23;;;;;;;5.11;54.31;102521.41;10513545;28;20226;-83
2022/01/14 09:07:45;;;;;;;47.53;24.10;;;;;;;5.68;52.90;102516.41;10509843;28;20272;-83
2022/01/14 09:12:48;;;;;;;58.80;26.33;;;;;;;4.90;56.16;102522.75;10526907;28;20214;-84
2022/01/14 09:17:50;;;;;;;75.17;27.33;;;;;;;4.82;56.41;102528.59;10481844;28;1060813;-84
2022/01/14 09:22:56;;;;;;;81.53;28.23;;;;;;;5.74;54.25;102535.81;10535380;28;20245;-84
2022/01/14 09:27:59;;;;;;;105.17;28.00;;;;;;;5.45;54.93;102548.66;10562550;28;20245;-87
2022/01/14 09:33:01;;;;;;;120.33;30.57;;;;;;;5.87;54.55;102534.81;10561176;28;20335;-83
2022/01/14 09:38:03;;;;;;;152.70;32.37;;;;;;;5.81;54.91;102544.97;10541826;28;20236;-85
2022/01/14 09:43:06;;;;;;;132.67;30.57;;;;;;;5.45;55.61;102547.78;10540662;28;20218;-84
2022/01/14 09:48:28;;;;;;;108.13;29.93;;;;;;;5.73;54.94;102547.22;10560728;28;20216;-87
2022/01/14 09:53:31;;;;;;;127.07;33.17;;;;;;;5.84;54.65;102548.38;10521058;28;20502;-84
2022/01/14 09:58:37;;;;;;;80.77;26.97;;;;;;;4.78;57.98;102534.84;10543133;28;20252;-89
2022/01/14 10:03:55;;;;;;;69.17;24.80;;;;;;;4.61;58.99;102540.16;10559238;28;20212;-83
2022/01/14 10:09:10;;;;;;;66.10;25.00;;;;;;;5.62;55.91;102534.91;10518608;28;20230;-86
2022/01/14 10:14:20;;;;;;;62.70;24.03;;;;;;;5.41;56.65;102527.06;10539416;28;20235;-86
2022/01/14 10:19:30;;;;;;;67.20;24.90;;;;;;;4.83;58.88;102548.94;10527376;28;20227;-83
2022/01/14 10:24:32;;;;;;;68.73;22.73;;;;;;;4.97;58.24;102542.16;10510699;28;20217;-83
2022/01/14 10:29:38;;;;;;;52.57;21.93;;;;;;;5.19;58.73;102531.41;10541120;28;20198;-86
2022/01/14 10:34:41;;;;;;;52.00;23.20;;;;;;;5.25;57.39;102544.41;10531590;28;20198;-85
2022/01/14 10:39:49;;;;;;;53.93;21.43;;;;;;;4.71;59.53;102532.13;10577874;28;20217;-89
2022/01/14 10:44:52;;;;;;;52.57;22.37;;;;;;;5.55;56.94;102522.16;10551466;28;20190;-89
2022/01/14 10:49:57;;;;;;;47.97;21.67;;;;;;;5.56;57.14;102513.53;10559122;28;20220;-87
2022/01/14 10:54:59;;;;;;;51.53;22.00;;;;;;;5.15;58.09;102500.38;10540949;28;20257;-85
2022/01/14 11:00:17;;;;;;;43.40;19.60;;;;;;;5.06;58.89;102490.59;10525781;28;20214;-84
2022/01/14 11:05:22;;;;;;;41.30;19.23;;;;;;;5.52;57.86;102475.22;10525405;28;20217;-85
2022/01/14 11:10:30;;;;;;;47.83;21.57;;;;;;;5.64;58.29;102487.28;10525666;28;20187;-85
2022/01/14 11:15:33;;;;;;;45.33;20.97;;;;;;;5.67;57.55;102478.44;10523651;28;20221;-87
2022/01/14 11:23:14;;;;;;;47.03;21.10;;;;;;;5.50;58.36;102485.78;10542074;28;20225;-84
2022/01/14 11:26:04;;;;;;;45.53;20.70;;;;;;;5.84;58.01;102487.88;10504361;28;20236;-83
2022/01/14 11:31:27;;;;;;;49.50;20.70;;;;;;;6.11;56.22;102475.19;10491367;28;20188;-86
2022/01/14 11:36:56;;;;;;;42.53;19.93;;;;;;;6.64;54.98;102465.88;10488397;28;20198;-86
2022/01/14 11:42:08;;;;;;;40.67;20.40;;;;;;;6.23;56.24;102468.78;10530091;28;20254;-83
2022/01/14 11:47:23;;;;;;;40.30;19.17;;;;;;;6.14;56.64;102480.31;10533479;28;20207;-87
2022/01/14 11:52:42;;;;;;;44.17;20.30;;;;;;;6.77;54.46;102470.38;10547196;28;20247;-87
2022/01/14 11:58:09;;;;;;;43.17;19.80;;;;;;;6.80;54.96;102459.56;10550308;28;20198;-85
2022/01/14 12:03:14;;;;;;;48.33;18.90;;;;;;;6.80;54.70;102476.31;10567583;28;20236;-84
2022/01/14 12:08:30;;;;;;;37.13;19.30;;;;;;;7.52;53.17;102468.38;10560553;28;20286;-88
2022/01/14 12:13:48;;;;;;;50.60;20.53;;;;;;;7.26;53.69;102468.94;10530973;28;20523;-86
2022/01/14 12:18:57;;;;;;;41.93;19.57;;;;;;;7.07;54.29;102464.63;10533043;28;20691;-87
2022/01/14 12:23:59;;;;;;;43.43;20.63;;;;;;;6.99;55.01;102462.19;10531445;28;20215;-87
2022/01/14 12:29:13;;;;;;;45.73;20.73;;;;;;;7.31;54.34;102457.03;10529027;28;20260;-84
2022/01/14 12:34:15;;;;;;;43.17;19.63;;;;;;;7.46;53.36;102454.56;10530244;28;20268;-83
2022/01/14 12:39:18;;;;;;;39.17;19.97;;;;;;;7.28;54.01;102450.00;10538100;28;20481;-84
2022/01/14 12:44:22;;;;;;;42.20;20.90;;;;;;;7.13;54.10;102442.09;10535565;28;20228;-83
2022/01/14 12:49:29;;;;;;;42.67;19.97;;;;;;;6.81;55.23;102444.50;10541512;28;20228;-86
2022/01/14 12:54:37;;;;;;;35.47;17.83;;;;;;;6.59;56.32;102450.97;10553675;28;20199;-87
2022/01/14 12:59:41;;;;;;;37.83;20.00;;;;;;;6.94;55.45;102434.16;10517687;28;20202;-85
2022/01/14 13:04:43;;;;;;;37.07;18.27;;;;;;;7.14;54.60;102423.38;10549753;28;20199;-87
2022/01/14 13:09:45;;;;;;;38.50;19.67;;;;;;;6.76;56.40;102413.63;10526734;28;20218;-86
2022/01/14 13:14:56;;;;;;;31.20;16.80;;;;;;;7.29;54.79;102420.09;10530861;28;20202;-85
2022/01/14 13:19:58;;;;;;;32.77;18.10;;;;;;;7.26;55.46;102417.78;10549028;28;20645;-88
2022/01/14 13:25:05;;;;;;;34.80;18.87;;;;;;;7.61;54.37;102414.84;10565682;28;20207;-84
2022/01/14 13:30:16;;;;;;;34.87;18.70;;;;;;;7.62;53.75;102419.34;10518750;28;20212;-85
2022/01/14 13:35:24;;;;;;;35.50;19.20;;;;;;;7.72;54.25;102420.38;10521226;28;20211;-84
2022/01/14 13:40:29;;;;;;;37.50;20.03;;;;;;;7.46;55.05;102413.44;10526761;28;20469;-84
2022/01/14 13:45:32;;;;;;;37.43;18.37;;;;;;;7.46;55.01;102407.84;10545167;28;20202;-89
2022/01/14 13:50:38;;;;;;;34.27;18.53;;;;;;;7.31;54.24;102404.75;10508500;28;20661;-89
2022/01/14 13:55:50;;;;;;;39.00;21.37;;;;;;;7.45;54.19;102411.75;10524002;28;20612;-86
2022/01/14 14:00:54;;;;;;;41.10;22.00;;;;;;;7.80;53.60;102419.09;10542463;28;20218;-89
2022/01/14 14:06:03;;;;;;;37.60;21.70;;;;;;;7.73;53.50;102413.66;10508479;28;20287;-84
2022/01/14 14:16:32;;;;;;;84.53;39.63;;;;;;;7.66;54.32;102400.91;10540076;28;20268;-87
2022/01/14 14:21:35;;;;;;;48.37;26.50;;;;;;;7.93;53.30;102396.38;10510764;28;20267;-88
2022/01/14 14:26:37;;;;;;;39.67;21.53;;;;;;;7.86;53.60;102402.16;10530780;28;20199;-87
2022/01/14 14:31:39;;;;;;;39.70;20.20;;;;;;;7.73;54.00;102396.03;10540296;28;20203;-83
2022/01/14 14:36:42;;;;;;;35.97;19.97;;;;;;;7.14;55.96;102387.03;10542036;28;20195;-83
2022/01/14 14:41:44;;;;;;;36.43;20.23;;;;;;;7.79;53.90;102383.81;10540925;28;20318;-84
2022/01/14 14:46:46;;;;;;;36.53;21.07;;;;;;;7.52;54.56;102384.47;10506752;28;20198;-83
2022/01/14 14:51:48;;;;;;;36.63;19.70;;;;;;;7.70;53.97;102377.78;10525417;28;20199;-83
2022/01/14 14:56:51;;;;;;;33.33;19.27;;;;;;;8.26;51.92;102379.56;10523670;28;20572;-83
2022/01/14 15:01:53;;;;;;;32.73;18.93;;;;;;;7.63;53.71;102379.06;10522644;28;20550;-85
2022/01/14 15:06:56;;;;;;;31.17;17.40;;;;;;;7.56;53.58;102380.06;10525635;28;20523;-84
2022/01/14 15:11:58;;;;;;;28.40;16.37;;;;;;;7.85;53.06;102383.66;10503758;28;20198;-89
2022/01/14 15:22:06;;;;;;;28.17;17.03;;;;;;;8.02;52.72;102380.84;10519577;28;20242;-83
2022/01/14 15:27:12;;;;;;;25.23;15.37;;;;;;;7.90;52.96;102391.28;10512804;28;20206;-85
2022/01/14 15:32:14;;;;;;;29.90;16.43;;;;;;;7.86;53.16;102384.50;10535252;28;20492;-90
2022/01/14 15:37:16;;;;;;;22.73;15.03;;;;;;;7.81;53.54;102393.66;10508708;28;20207;-89
2022/01/14 15:42:19;;;;;;;24.13;15.73;;;;;;;8.03;52.63;102395.69;10547330;28;20221;-89
2022/01/14 15:47:21;;;;;;;27.77;16.20;;;;;;;7.55;53.43;102406.34;10538101;28;20252;-89
2022/01/14 15:52:23;;;;;;;26.97;16.40;;;;;;;7.93;52.68;102401.97;10533244;28;20476;-89
2022/01/14 15:57:25;;;;;;;25.17;15.27;;;;;;;8.00;52.21;102391.47;10519905;28;20198;-87
2022/01/14 16:02:28;;;;;;;26.77;16.87;;;;;;;7.50;53.41;102391.44;10555322;28;20653;-87
2022/01/14 16:07:30;;;;;;;27.80;16.30;;;;;;;7.09;55.10;102392.53;10553691;28;20218;-86
2022/01/14 16:12:36;;;;;;;25.00;14.80;;;;;;;7.48;53.70;102388.88;10532198;28;20202;-87
2022/01/14 16:17:42;;;;;;;27.20;17.03;;;;;;;7.22;54.37;102389.50;10542044;28;20264;-85
2022/01/14 16:22:46;;;;;;;24.40;14.63;;;;;;;7.30;54.56;102391.88;10565662;28;20278;-89
2022/01/14 16:27:49;;;;;;;19.33;13.60;;;;;;;7.41;55.05;102388.16;10540295;28;20234;-89
2022/01/14 16:32:51;;;;;;;26.60;16.43;;;;;;;7.85;53.46;102378.06;10533097;28;20199;-87
2022/01/14 16:37:53;;;;;;;24.43;16.07;;;;;;;7.08;55.74;102376.88;10532582;28;20220;-86
2022/01/14 16:42:56;;;;;;;29.43;17.27;;;;;;;7.84;53.08;102373.56;10531107;28;20244;-88
2022/01/14 16:47:58;;;;;;;25.93;16.87;;;;;;;7.74;53.74;102369.75;10515423;28;20240;-87
2022/01/14 16:53:01;;;;;;;27.63;17.13;;;;;;;7.43;54.48;102369.19;10529128;28;20212;-88
2022/01/14 16:58:07;;;;;;;42.33;21.57;;;;;;;7.05;55.51;102366.19;10523990;28;20213;-84
2022/01/14 17:03:10;;;;;;;31.43;19.00;;;;;;;7.11;55.68;102360.44;10528410;28;20230;-84
2022/01/14 17:08:12;;;;;;;25.80;16.97;;;;;;;7.27;54.89;102361.63;10528582;28;20283;-83
2022/01/14 17:13:18;;;;;;;29.60;18.50;;;;;;;7.20;54.82;102355.34;10496635;28;20217;-84
2022/01/14 17:18:24;;;;;;;29.77;17.53;;;;;;;6.68;56.97;102360.97;10523125;28;20700;-84
2022/01/14 17:23:27;;;;;;;33.37;19.30;;;;;;;6.87;55.34;102359.66;10525207;28;20234;-84
2022/01/14 17:28:29;;;;;;;33.00;19.20;;;;;;;7.42;54.39;102349.88;10526865;28;20280;-84
2022/01/14 17:33:32;;;;;;;33.43;18.73;;;;;;;7.49;54.44;102351.44;10536908;28;20195;-84
2022/01/14 17:38:35;;;;;;;30.87;17.53;;;;;;;7.75;53.79;102360.25;10518547;28;20599;-85
2022/01/14 17:43:42;;;;;;;27.90;18.43;;;;;;;7.59;53.71;102353.53;10509250;28;20238;-85
2022/01/14 17:48:45;;;;;;;33.10;18.93;;;;;;;7.44;54.82;102362.50;10515820;28;20226;-84
2022/01/14 17:53:48;;;;;;;45.73;25.87;;;;;;;7.70;54.28;102343.38;10519902;28;20667;-87
2022/01/14 17:58:50;;;;;;;34.07;19.97;;;;;;;6.93;56.26;102351.41;10485533;28;20206;-86
2022/01/14 18:03:53;;;;;;;34.27;20.77;;;;;;;7.29;55.46;102351.03;10501826;28;20254;-86
2022/01/14 18:08:56;;;;;;;40.63;22.37;;;;;;;7.38;55.07;102341.13;10503451;28;20256;-87
2022/01/14 18:14:22;;;;;;;46.50;27.20;;;;;;;7.27;55.09;102342.03;10508106;28;20264;-86
2022/01/14 18:19:22;;;;;;;45.00;26.33;;;;;;;7.48;54.39;102349.72;10506548;28;20335;-86
2022/01/14 18:24:26;;;;;;;47.30;28.20;;;;;;;7.30;54.90;102344.34;10510555;28;20234;-83
2022/01/14 18:29:28;;;;;;;36.10;20.80;;;;;;;7.51;54.23;102356.75;10516722;28;20203;-85
2022/01/14 18:34:31;;;;;;;34.87;20.53;;;;;;;7.72;53.75;102352.38;10499850;28;20221;-84
2022/01/14 18:39:33;;;;;;;31.60;20.83;;;;;;;7.96;52.71;102356.69;10501959;28;20202;-85
2022/01/14 18:44:38;;;;;;;34.97;22.47;;;;;;;7.37;54.75;102359.00;10503459;28;20911;-84
2022/01/14 18:49:41;;;;;;;41.57;24.07;;;;;;;7.74;53.62;102352.97;10502804;28;20199;-87
2022/01/14 18:54:43;;;;;;;34.00;22.30;;;;;;;7.93;52.59;102351.59;10522324;28;20195;-85
2022/01/14 18:59:46;;;;;;;35.53;22.27;;;;;;;7.83;53.43;102340.25;10496153;28;20290;-86
2022/01/14 19:04:49;;;;;;;28.27;19.83;;;;;;;7.53;53.24;102337.75;10498765;28;20296;-85
2022/01/14 19:09:53;;;;;;;31.00;20.27;;;;;;;7.92;52.52;102335.91;10498791;28;20531;-86
2022/01/14 19:14:56;;;;;;;34.83;21.43;;;;;;;7.60;53.45;102341.25;10492676;28;20557;-85
2022/01/14 19:19:58;;;;;;;28.93;18.87;;;;;;;7.63;53.91;102343.56;10506454;28;20206;-87
2022/01/14 19:25:00;;;;;;;25.60;18.17;;;;;;;7.85;53.00;102341.69;10498648;28;20299;-86
2022/01/14 19:30:05;;;;;;;41.60;30.03;;;;;;;7.50;53.29;102339.09;10510291;28;20198;-85
2022/01/14 19:35:08;;;;;;;24.67;17.63;;;;;;;7.70;52.87;102344.22;10506372;28;20217;-85
2022/01/14 19:40:10;;;;;;;22.27;17.73;;;;;;;7.82;52.49;102349.72;10522824;28;20202;-84
2022/01/14 19:45:13;;;;;;;19.47;14.37;;;;;;;8.00;52.21;102352.28;10524814;28;20315;-84
2022/01/14 19:50:15;;;;;;;19.87;14.13;;;;;;;8.08;51.87;102343.44;10524978;28;20591;-84
2022/01/14 19:55:18;;;;;;;20.60;14.40;;;;;;;7.22;53.95;102341.97;10526378;28;20555;-86
2022/01/14 20:00:21;;;;;;;22.83;16.13;;;;;;;6.99;54.96;102342.00;10519172;28;20280;-85
2022/01/14 20:05:30;;;;;;;22.17;15.70;;;;;;;7.08;54.58;102335.81;10510270;28;20260;-87
2022/01/14 20:10:33;;;;;;;23.30;16.00;;;;;;;7.34;53.41;102331.56;10503233;28;20267;-86
2022/01/14 20:15:36;;;;;;;22.67;15.30;;;;;;;7.53;53.47;102315.38;10526765;28;20218;-85
2022/01/14 20:20:38;;;;;;;26.53;15.60;;;;;;;7.53;53.47;102316.22;10530280;28;20202;-86
2022/01/14 20:25:40;;;;;;;25.30;15.23;;;;;;;7.07;54.23;102310.88;10494999;28;20568;-84
2022/01/14 20:30:44;;;;;;;21.40;14.80;;;;;;;7.42;53.74;102311.56;10520415;28;20586;-84
2022/01/14 20:35:47;;;;;;;24.67;15.30;;;;;;;7.31;53.38;102320.88;10509064;28;20235;-86
2022/01/14 20:40:49;;;;;;;26.47;15.30;;;;;;;7.23;53.76;102308.16;10522114;28;20224;-84
2022/01/14 20:45:53;;;;;;;29.37;16.43;;;;;;;7.72;52.81;102302.00;10523471;28;20257;-87
2022/01/14 20:50:58;;;;;;;28.47;16.13;;;;;;;7.85;52.28;102291.31;10503522;28;20234;-87
2022/01/14 20:56:00;;;;;;;30.83;17.70;;;;;;;7.81;52.42;102286.47;10527384;28;20295;-85
2022/01/14 21:01:03;;;;;;;32.97;17.07;;;;;;;7.22;54.04;102277.66;10523463;28;20199;-84
2022/01/14 21:06:06;;;;;;;23.37;15.13;;;;;;;7.48;53.56;102276.16;10514632;28;20654;-86
2022/01/14 21:11:08;;;;;;;26.00;16.10;;;;;;;7.38;53.58;102271.22;10526776;28;20210;-84
2022/01/14 21:16:11;;;;;;;29.23;15.87;;;;;;;7.54;53.71;102266.72;10520166;28;20283;-86
2022/01/14 21:21:14;;;;;;;32.73;17.97;;;;;;;7.66;52.99;102263.84;10519917;28;20316;-86
2022/01/14 21:26:16;;;;;;;30.50;17.63;;;;;;;7.66;52.72;102269.44;10534840;28;20246;-85
2022/01/14 21:31:19;;;;;;;33.17;18.20;;;;;;;7.44;53.47;102270.22;10515408;28;20194;-85
2022/01/14 21:36:21;;;;;;;31.70;17.53;;;;;;;7.71;53.34;102269.53;10527181;28;20208;-84
2022/01/14 21:41:24;;;;;;;34.20;18.27;;;;;;;7.48;53.88;102271.41;10525433;28;20214;-84
2022/01/14 21:46:26;;;;;;;32.40;18.03;;;;;;;7.34;54.13;102264.47;10527794;28;20222;-84
2022/01/14 21:51:28;;;;;;;30.60;17.30;;;;;;;7.55;53.76;102262.84;10527279;28;20265;-85
2022/01/14 21:56:31;;;;;;;30.60;16.80;;;;;;;7.69;53.25;102254.94;10527631;28;20194;-85
2022/01/14 22:01:33;;;;;;;30.63;16.87;;;;;;;7.22;54.26;102252.50;10527528;28;20202;-83
2022/01/14 22:06:36;;;;;;;28.23;16.90;;;;;;;7.42;54.06;102260.38;10526740;28;20263;-85
2022/01/14 22:11:38;;;;;;;31.57;16.57;;;;;;;7.36;54.39;102262.25;10517782;28;20195;-85
2022/01/14 22:16:40;;;;;;;33.77;17.90;;;;;;;6.78;56.11;102257.81;10515602;28;20222;-83
2022/01/14 22:21:43;;;;;;;32.57;16.40;;;;;;;7.38;53.82;102246.06;10534916;28;20218;-84
2022/01/14 22:26:45;;;;;;;32.03;18.13;;;;;;;6.93;55.06;102251.66;10509663;28;20250;-85
2022/01/14 22:31:47;;;;;;;31.87;17.13;;;;;;;6.99;54.89;102252.59;10510021;28;20248;-86
2022/01/14 22:36:49;;;;;;;33.47;18.53;;;;;;;7.04;54.89;102247.09;10509126;28;20210;-85
2022/01/14 22:41:53;;;;;;;37.50;19.43;;;;;;;7.50;53.63;102251.59;10526211;28;20190;-87
2022/01/14 22:46:55;;;;;;;36.53;18.23;;;;;;;7.43;54.08;102248.94;10500478;28;20211;-83
2022/01/14 22:51:57;;;;;;;32.67;18.07;;;;;;;7.04;54.94;102252.69;10483738;28;20229;-85
2022/01/14 22:56:59;;;;;;;32.73;17.63;;;;;;;6.92;55.39;102243.53;10485724;28;20530;-84
2022/01/14 23:02:02;;;;;;;33.20;18.40;;;;;;;7.33;54.40;102245.13;10524289;28;20202;-84
2022/01/14 23:07:04;;;;;;;31.10;16.70;;;;;;;6.93;55.15;102242.44;10509023;28;20250;-85
2022/01/14 23:12:07;;;;;;;29.80;16.23;;;;;;;6.98;54.65;102245.34;10525808;28;20195;-85
2022/01/14 23:17:09;;;;;;;29.93;16.03;;;;;;;7.03;54.68;102245.41;10499854;28;20276;-85
2022/01/14 23:22:11;;;;;;;30.10;15.93;;;;;;;7.47;54.11;102235.31;10489432;28;20598;-85
2022/01/14 23:27:13;;;;;;;26.07;15.03;;;;;;;6.91;55.36;102241.84;10524698;28;20206;-85
2022/01/14 23:32:16;;;;;;;26.90;14.53;;;;;;;7.51;53.23;102230.88;10509827;28;20208;-85
2022/01/14 23:37:18;;;;;;;25.33;14.90;;;;;;;6.68;55.67;102229.69;10525084;28;20233;-84
2022/01/14 23:42:20;;;;;;;25.47;14.43;;;;;;;7.21;54.42;102225.66;10523906;28;20240;-84
2022/01/14 23:47:38;;;;;;;25.03;13.83;;;;;;;7.22;54.36;102216.16;10530032;28;20207;-85
2022/01/14 23:52:43;;;;;;;27.93;14.93;;;;;;;7.62;53.23;102226.31;10509112;28;20263;-85
2022/01/14 23:57:48;;;;;;;25.03;14.17;;;;;;;7.35;53.92;102214.97;10525195;28;20194;-85
